Latest Weather Observations for Wilsons Promontory

IDV60801

Issued at 12:02 am EST Wednesday 28 June 2017 (issued every 30 minutes, with the page automatically refreshed every 10 minutes)

About weather observations | Map of weather stations | Latest weather observations for VIC | Other Formats
Station Details ID: 085096 Name: WILSONS PROMONTORY LIGHTHOUSE Lat: -39.13 Lon: 146.42 Height: 95.0 m
Data from the previous 72 hours. | See also: Recent months at Wilsons Promontory
Date/Time
EST
Temp
°C
App
Temp
°C
Dew
Point
°C
Rel
Hum
%
Delta-T
°C
Wind Press
QNH
hPa
Press
MSL
hPa
Rain since
9am
mm
Dir  Spd
km/h
Gust
km/h
Spd
kts
Gust
kts
28/12:00am 10.5 4.6 1.9 55 3.6 NW 22 32 12 17 1022.3 1022.4 0.0
 
Date/Time
EST
Temp
°C
App
Temp
°C
Dew
Point
°C
Rel
Hum
%
Delta-T
°C
Wind Press
QNH
hPa
Press
MSL
hPa
Rain since
9am
mm
Dir  Spd
km/h
Gust
km/h
Spd
kts
Gust
kts
27/11:30pm 10.5 4.3 1.9 55 3.6 NW 24 33 13 18 1022.5 - 0.0
27/11:00pm 10.6 4.7 1.9 55 3.7 NW 22 32 12 17 1022.6 - 0.0
27/10:30pm 10.6 5.1 1.9 55 3.7 NW 20 26 11 14 1022.7 - 0.0
27/10:00pm 10.6 4.8 2.2 56 3.6 NNW 22 28 12 15 1022.8 - 0.0
27/09:30pm 10.6 5.2 2.2 56 3.6 NNW 20 26 11 14 1022.9 - 0.0
27/09:00pm 10.4 5.2 2.5 58 3.4 NNW 19 22 10 12 1023.1 1023.2 0.0
27/08:30pm 10.4 5.2 2.7 59 3.3 NNW 19 24 10 13 1023.2 - 0.0
27/08:00pm 10.3 5.5 2.7 59 3.3 NNW 17 20 9 11 1023.3 - 0.0
27/07:30pm 10.4 5.6 2.7 59 3.3 N 17 20 9 11 1023.3 - 0.0
27/07:00pm 10.6 6.5 2.4 57 3.5 NNW 13 20 7 11 1023.3 - 0.0
27/06:30pm 10.5 5.2 2.1 56 3.6 NNW 19 28 10 15 1023.1 - 0.0
27/06:00pm 10.6 6.4 1.9 55 3.7 NNW 13 20 7 11 1023.2 1023.3 0.0
27/05:30pm 10.5 5.7 2.8 59 3.3 NNW 17 22 9 12 1023.2 - 0.0
27/05:00pm 10.6 7.0 2.7 58 3.4 N 11 15 6 8 1023.1 - 0.0
27/04:30pm 10.8 7.8 2.1 55 3.7 NNW 7 11 4 6 1023.3 - 0.0
27/04:00pm 10.9 5.7 2.2 55 3.7 WNW 19 28 10 15 1023.2 - 0.0
27/03:30pm 11.1 4.6 2.4 55 3.8 WNW 26 33 14 18 1023.0 - 0.0
27/03:00pm 11.1 4.3 3.2 58 3.5 WNW 28 39 15 21 1022.8 1022.9 0.0
27/02:30pm 11.3 5.5 4.3 62 3.2 WNW 24 39 13 21 1022.8 - 0.0
27/02:00pm 11.3 7.6 4.7 64 3.0 W 13 26 7 14 1023.0 - 0.0
27/01:30pm 11.3 7.2 4.5 63 3.1 W 15 24 8 13 1023.2 - 0.0
27/01:00pm 11.4 5.3 4.6 63 3.1 WNW 26 35 14 19 1023.6 - 0.0
27/12:30pm 11.9 6.8 3.9 58 3.6 WNW 20 32 11 17 1023.9 - 0.0
27/12:00pm 11.9 6.8 3.9 58 3.6 WNW 20 30 11 16 1024.1 1024.2 0.0
27/11:30am 11.9 7.6 5.1 63 3.1 WNW 17 30 9 16 1024.4 - 0.0
27/11:00am 11.9 8.0 5.5 65 3.0 W 15 22 8 12 1024.8 - 0.0
27/10:30am 11.9 8.6 6.2 68 2.7 E 13 19 7 10 1025.0 - 0.0
27/10:00am 12.1 9.9 6.4 68 2.7 ESE 7 17 4 9 1025.1 - 0.0
27/09:30am 12.4 9.8 6.2 66 2.9 NNE 9 15 5 8 1025.0 - 0.0
27/09:00am 11.5 8.2 6.2 70 2.5 NNW 13 26 7 14 1025.1 1025.3 0.2
27/08:30am 11.1 9.3 7.0 76 2.0 NNW 6 13 3 7 1024.9 - 0.2
27/08:00am 10.0 7.9 6.5 79 1.6 N 7 9 4 5 1024.7 - 0.2
27/07:30am 9.6 7.6 6.3 80 1.5 S 6 9 3 5 1024.6 - 0.2
27/07:00am 9.5 4.9 6.4 81 1.4 WNW 20 28 11 15 1024.5 - 0.2
27/06:30am 9.6 5.6 6.5 81 1.4 WNW 17 22 9 12 1024.6 - 0.2
27/06:00am 9.7 5.2 6.8 82 1.4 WNW 20 26 11 14 1024.6 1024.8 0.2
27/05:30am 9.8 4.5 6.9 82 1.4 WNW 24 32 13 17 1024.4 - 0.2
27/05:00am 9.8 5.5 7.1 83 1.3 WNW 19 26 10 14 1024.5 - 0.2
27/04:30am 9.7 5.2 7.0 83 1.3 WNW 20 26 11 14 1024.6 - 0.2
27/04:00am 9.4 5.4 6.5 82 1.4 WNW 17 26 9 14 1024.6 - 0.2
27/03:30am 9.5 5.2 6.8 83 1.3 WNW 19 24 10 13 1024.7 - 0.2
27/02:30am 9.4 5.0 6.5 82 1.4 WNW 19 20 10 11 1024.5 - 0.0
27/02:00am 9.8 5.2 6.7 81 1.5 WNW 20 30 11 16 1024.5 - 0.0
27/01:30am 9.7 6.4 6.6 81 1.5 W 13 19 7 10 1024.2 - 0.0
27/01:00am 10.0 6.0 6.7 80 1.6 WNW 17 28 9 15 1024.2 - 0.0
27/12:30am 10.0 5.6 6.7 80 1.6 W 19 22 10 12 1024.3 - 0.0
27/12:00am 9.8 6.2 6.7 81 1.4 WNW 15 20 8 11 1024.6 1024.8 0.0
 
Date/Time
EST
Temp
°C
App
Temp
°C
Dew
Point
°C
Rel
Hum
%
Delta-T
°C
Wind Press
QNH
hPa
Press
MSL
hPa
Rain since
9am
mm
Dir  Spd
km/h
Gust
km/h
Spd
kts
Gust
kts
26/11:30pm 9.7 5.6 6.4 80 1.5 W 17 20 9 11 1024.8 - 0.0
26/11:00pm 10.0 5.7 6.9 81 1.5 W 19 24 10 13 1024.8 - 0.0
26/10:30pm 9.8 5.9 7.1 83 1.3 W 17 22 9 12 1024.8 - 0.0
26/10:00pm 10.0 6.1 7.1 82 1.4 W 17 26 9 14 1024.6 - 0.0
26/09:30pm 10.0 6.0 6.7 80 1.6 W 17 26 9 14 1024.6 - 0.0
26/09:00pm 10.2 5.6 6.5 78 1.7 W 20 32 11 17 1024.5 1024.6 0.0
26/08:30pm 10.1 5.6 7.0 81 1.5 W 20 32 11 17 1024.5 - 0.0
26/08:00pm 9.7 5.2 7.0 83 1.3 W 20 28 11 15 1024.4 - 0.0
26/07:30pm 10.3 5.3 7.9 85 1.2 WSW 24 35 13 19 1024.2 - 0.0
26/07:00pm 9.5 5.1 7.3 86 1.0 W 20 28 11 15 1024.1 - 0.0
26/06:30pm 9.4 5.2 7.3 87 1.0 W 19 28 10 15 1023.9 - 0.0
26/06:00pm 9.5 4.7 7.3 86 1.0 W 22 30 12 16 1023.5 1023.6 0.0
26/05:30pm 9.9 5.6 7.7 86 1.1 W 20 33 11 18 1023.2 - 0.0
26/05:00pm 9.7 2.5 7.6 87 1.0 WSW 35 43 19 23 1022.9 - 0.0
26/04:30pm 10.2 2.7 7.8 85 1.2 SW 37 43 20 23 1022.6 - 0.0
26/04:00pm 10.2 3.4 7.6 84 1.3 WSW 33 41 18 22 1022.6 - 0.0
26/03:43pm 10.3 3.5 7.5 83 1.3 SW 33 43 18 23 1022.4 - 0.0
26/03:30pm 10.2 6.4 7.4 83 1.3 W 17 22 9 12 1022.7 - 0.0
26/03:14pm 10.2 6.0 7.6 84 1.3 W 19 30 10 16 1022.5 - 0.0
26/03:00pm 9.6 1.2 7.2 85 1.1 SW 41 50 22 27 1022.2 1022.3 0.0
26/02:30pm 10.4 5.9 6.9 79 1.7 SW 20 35 11 19 1022.0 - 0.0
26/02:04pm 10.3 2.1 6.6 78 1.7 SW 39 46 21 25 1021.5 - 0.0
26/02:00pm 11.1 5.8 7.0 76 2.0 W 24 33 13 18 1021.8 - 0.0
26/01:30pm 11.1 5.7 6.5 73 2.2 W 24 33 13 18 1021.7 - 0.0
26/01:00pm 10.9 5.2 6.5 74 2.1 W 26 39 14 21 1021.7 - 0.0
26/12:30pm 10.7 4.6 6.8 77 1.9 W 28 41 15 22 1021.7 - 0.0
26/12:00pm 11.5 6.6 6.8 73 2.2 W 22 33 12 18 1021.9 1022.0 0.0
26/11:30am 11.1 6.1 6.5 73 2.2 W 22 32 12 17 1021.9 - 0.0
26/11:00am 10.8 3.8 5.8 71 2.3 W 32 43 17 23 1021.8 - 0.0
26/10:30am 10.5 3.5 6.1 74 2.1 W 32 50 17 27 1021.9 - 0.0
26/10:29am 10.4 3.4 6.0 74 2.0 W 32 50 17 27 1021.9 - 0.0
26/10:04am 10.4 1.3 5.8 73 2.1 WSW 43 46 23 25 1021.3 - 0.0
26/10:00am 10.4 4.1 5.6 72 2.2 W 28 37 15 20 1021.5 - 0.0
26/09:30am 10.5 3.3 6.1 74 2.1 WSW 33 44 18 24 1020.9 - 0.0
26/09:22am 10.4 2.4 5.8 73 2.1 WSW 37 50 20 27 1020.6 - 0.0
26/09:07am 10.1 2.2 6.1 76 1.9 SW 37 46 20 25 1020.3 - 0.0
26/09:00am 9.9 5.2 5.9 76 1.8 W 20 32 11 17 1020.7 1020.8 4.0
26/08:41am 9.9 1.2 5.9 76 1.8 W 41 59 22 32 1020.0 - 4.0
26/08:36am 10.3 1.6 5.9 74 2.0 W 41 54 22 29 1019.7 - 4.0
26/08:30am 10.7 0.9 5.5 70 2.4 SW 46 57 25 31 1019.5 - 4.0
26/08:17am 10.6 3.0 6.0 73 2.1 SW 35 54 19 29 1019.3 - 4.0
26/08:00am 10.5 0.0 5.5 71 2.3 WSW 50 59 27 32 1018.9 - 4.0
26/07:40am 10.1 -2.9 7.0 81 1.5 WSW 65 70 35 38 1018.2 - 4.0
26/07:37am 9.7 1.2 7.0 83 1.3 WSW 41 61 22 33 1018.8 - 4.0
26/07:30am 9.4 0.9 6.8 84 1.2 WSW 41 67 22 36 1018.9 - 3.8
26/07:24am 9.5 -2.9 6.6 82 1.4 SW 61 67 33 36 1018.4 - 3.8
26/07:12am 9.5 1.6 6.4 81 1.4 WSW 37 56 20 30 1018.9 - 3.8
26/07:00am 9.2 0.1 6.8 85 1.1 W 44 82 24 44 1018.4 - 3.8
26/06:56am 8.8 -5.1 6.4 85 1.1 WSW 69 87 37 47 1018.2 - 3.8
26/06:46am 9.9 -5.1 6.1 77 1.8 WSW 74 85 40 46 1017.1 - 3.4
26/06:45am 10.4 0.0 6.0 74 2.0 WSW 50 83 27 45 1017.4 - 3.4
26/06:30am 11.1 -0.9 5.0 66 2.8 WSW 57 69 31 37 1017.4 - 3.4
26/06:14am 10.8 0.5 6.4 74 2.1 WSW 50 69 27 37 1017.1 - 3.4
26/06:00am 10.3 -1.1 6.8 79 1.7 WSW 56 63 30 34 1017.1 1017.2 3.4
26/05:40am 10.4 -3.5 6.5 77 1.8 WSW 69 78 37 42 1016.3 - 3.4
26/05:32am 10.9 1.6 6.1 72 2.2 W 44 63 24 34 1016.8 - 3.4
26/05:30am 10.9 1.3 6.1 72 2.2 W 46 63 25 34 1016.7 - 3.4
26/05:00am 10.8 -0.1 7.1 78 1.8 WSW 54 70 29 38 1016.3 - 3.4
26/04:30am 10.9 0.3 7.0 77 1.9 WSW 52 61 28 33 1016.4 - 3.4
26/04:19am 10.8 2.3 6.9 77 1.9 W 41 59 22 32 1016.3 - 3.4
26/04:17am 10.7 3.0 7.0 78 1.8 W 37 61 20 33 1016.4 - 3.4
26/04:00am 9.9 -2.0 6.8 81 1.5 WSW 59 72 32 39 1015.9 - 3.4
26/03:53am 10.2 -2.6 6.5 78 1.7 WSW 63 72 34 39 1015.7 - 3.4
26/03:51am 10.8 2.2 6.6 75 2.0 W 41 69 22 37 1015.9 - 3.4
26/03:30am 11.1 2.6 7.0 76 2.0 W 41 52 22 28 1015.9 - 3.4
26/03:00am 10.8 0.7 7.5 80 1.6 WSW 50 69 27 37 1015.7 1015.8 3.4
26/02:30am 11.0 -1.0 6.7 75 2.0 WSW 59 82 32 44 1014.8 - 3.4
26/02:17am 11.1 0.7 6.0 71 2.4 WSW 50 69 27 37 1015.3 - 3.4
26/02:12am 11.0 1.4 6.2 72 2.3 W 46 67 25 36 1015.4 - 3.4
26/02:04am 10.7 -2.8 6.6 76 1.9 WSW 67 85 36 46 1015.2 - 3.4
26/02:00am 10.6 -3.9 6.6 76 1.9 WSW 72 87 39 47 1014.8 - 3.4
26/01:54am 10.6 -4.7 6.4 75 2.0 WSW 76 87 41 47 1014.2 - 3.4
26/01:53am 11.0 1.5 6.6 74 2.1 W 46 82 25 44 1014.7 - 3.4
26/01:40am 11.2 2.4 5.7 69 2.6 W 41 59 22 32 1015.2 - 3.4
26/01:30am 11.5 3.1 5.4 66 2.8 W 39 56 21 30 1015.1 - 3.4
26/01:10am 11.3 2.3 6.4 72 2.3 W 43 61 23 33 1014.8 - 3.4
26/01:00am 11.3 2.8 7.0 75 2.1 W 41 54 22 29 1014.9 - 3.4
26/12:55am 11.3 3.2 7.0 75 2.1 W 39 69 21 37 1014.7 - 3.4
26/12:30am 11.3 -0.6 7.2 76 2.0 WSW 59 72 32 39 1014.3 - 3.4
26/12:13am 11.4 2.1 5.7 68 2.7 W 44 63 24 34 1014.5 - 3.4
26/12:00am 11.4 2.2 6.3 71 2.4 W 44 61 24 33 1014.5 1014.6 3.4
 
Date/Time
EST
Temp
°C
App
Temp
°C
Dew
Point
°C
Rel
Hum
%
Delta-T
°C
Wind Press
QNH
hPa
Press
MSL
hPa
Rain since
9am
mm
Dir  Spd
km/h
Gust
km/h
Spd
kts
Gust
kts
25/11:34pm 11.8 2.7 6.1 68 2.7 W 43 61 23 33 1014.5 - 3.4
25/11:30pm 11.7 2.0 6.0 68 2.7 W 46 61 25 33 1014.5 - 3.4
25/11:08pm 11.5 2.0 6.8 73 2.2 W 46 65 25 35 1014.1 - 3.4
25/11:00pm 11.5 1.0 5.6 67 2.7 W 50 65 27 35 1014.0 - 3.4
25/10:38pm 11.5 1.8 6.0 69 2.6 W 46 67 25 36 1013.9 - 3.4
25/10:30pm 11.4 1.7 5.9 69 2.6 W 46 61 25 33 1013.9 - 3.4
25/10:01pm 11.5 2.2 5.8 68 2.7 W 44 63 24 34 1013.8 - 3.4
25/10:00pm 11.5 2.2 5.8 68 2.7 W 44 61 24 33 1013.8 - 3.4
25/09:30pm 11.8 2.6 6.5 70 2.5 W 44 69 24 37 1013.4 - 3.4
25/09:00pm 11.9 2.3 6.2 68 2.7 W 46 70 25 38 1012.4 1012.5 3.4
25/08:30pm 11.6 0.7 5.5 66 2.8 W 52 72 28 39 1012.1 - 3.4
25/08:04pm 11.7 -0.5 5.6 66 2.8 W 59 78 32 42 1011.8 - 3.4
25/08:00pm 11.7 -0.5 5.8 67 2.8 W 59 74 32 40 1011.6 - 3.4
25/07:40pm 11.8 2.9 6.7 71 2.4 W 43 67 23 36 1011.5 - 3.4
25/07:39pm 11.9 3.8 7.0 72 2.4 W 39 67 21 36 1011.7 - 3.4
25/07:30pm 11.7 0.1 6.6 71 2.4 W 57 76 31 41 1011.5 - 3.4
25/07:00pm 11.6 0.2 7.7 77 1.9 W 57 78 31 42 1010.9 - 3.4
25/06:30pm 10.6 0.5 7.5 81 1.5 W 50 69 27 37 1011.2 - 3.4
25/06:00pm 10.9 -0.7 8.1 83 1.4 W 59 93 32 50 1010.3 1010.4 3.4
25/05:30pm 10.8 0.1 7.9 82 1.4 W 54 78 29 42 1009.9 - 3.0
25/05:00pm 11.1 -2.5 7.8 80 1.6 W 69 100 37 54 1009.3 - 2.6
25/04:50pm 10.8 -3.0 7.9 82 1.4 W 70 107 38 58 1009.2 - 2.4
25/04:43pm 10.9 1.7 7.8 81 1.5 W 46 96 25 52 1009.4 - 2.0
25/04:30pm 11.2 2.8 7.5 78 1.8 W 41 69 22 37 1009.7 - 1.2
25/04:00pm 11.5 2.6 7.6 77 1.9 W 44 76 24 41 1009.6 - 0.6
25/03:30pm 10.8 0.7 7.3 79 1.7 W 50 83 27 45 1009.5 - 0.6
25/03:00pm 11.1 1.7 7.0 76 2.0 W 46 74 25 40 1009.3 1009.4 0.4
25/02:30pm 11.1 1.1 6.0 71 2.4 WNW 48 83 26 45 1009.5 - 0.2
25/02:00pm 10.9 0.1 5.9 71 2.3 WNW 52 83 28 45 1009.6 - 0.2
25/01:30pm 11.1 1.9 6.3 72 2.3 W 44 85 24 46 1010.0 - 0.2
25/01:00pm 10.9 -0.3 6.1 72 2.2 WNW 54 87 29 47 1010.0 - 0.2
25/12:30pm 10.9 0.9 6.1 72 2.2 W 48 85 26 46 1010.1 - 0.2
25/12:00pm 10.6 0.1 5.8 72 2.2 W 50 91 27 49 1010.6 1010.7 0.2
25/11:30am 10.6 1.5 6.0 73 2.1 W 43 74 23 40 1011.5 - 0.2
25/11:00am 10.2 1.8 5.8 74 2.0 W 39 93 21 50 1011.8 - 0.2
25/10:59am 10.2 2.2 5.8 74 2.0 W 37 93 20 50 1011.8 - 0.2
25/10:30am 10.0 3.0 6.0 76 1.9 WNW 32 72 17 39 1012.2 - 0.2
25/10:10am 9.7 3.5 6.2 79 1.6 W 28 61 15 33 1012.1 - 0.2
25/10:00am 9.4 3.9 5.9 79 1.6 WNW 24 56 13 30 1012.5 - 0.2
25/09:30am 9.1 2.1 6.0 81 1.4 WNW 32 63 17 34 1012.5 - 0.2
25/09:09am 9.0 2.8 6.1 82 1.3 WNW 28 67 15 36 1012.4 - 0.2
25/09:00am 9.0 3.5 6.1 82 1.3 WNW 24 54 13 29 1012.5 1012.6 2.6
25/08:35am 9.1 2.9 6.0 81 1.4 WNW 28 56 15 30 1012.3 - 2.6
25/08:30am 9.0 2.0 5.9 81 1.4 NW 32 56 17 30 1012.5 - 2.6
25/08:10am 8.8 2.2 5.9 82 1.3 W 30 50 16 27 1012.3 - 2.4
25/08:00am 8.7 4.2 6.0 83 1.2 WNW 19 46 10 25 1012.4 - 2.4
25/07:30am 8.7 3.2 6.0 83 1.2 WNW 24 52 13 28 1012.4 - 2.2
25/07:00am 8.7 3.2 5.8 82 1.3 WNW 24 46 13 25 1012.4 - 2.0
25/06:30am 8.3 3.7 5.4 82 1.3 NW 19 43 10 23 1012.3 - 1.8
25/06:00am 8.7 2.7 5.1 78 1.6 W 26 54 14 29 1012.5 1012.6 1.4
25/05:56am 8.8 1.9 4.8 76 1.8 NW 30 54 16 29 1012.3 - 1.4
25/05:30am 9.2 5.5 4.6 73 2.1 WSW 13 41 7 22 1012.4 - 1.4
25/05:00am 9.3 4.5 4.5 72 2.1 NNW 19 35 10 19 1012.4 - 1.4
25/04:30am 9.1 4.6 4.1 71 2.2 N 17 37 9 20 1012.4 - 1.4
25/04:00am 9.1 3.6 3.9 70 2.3 NW 22 39 12 21 1012.9 - 1.4
25/03:30am 8.8 3.8 3.4 69 2.3 NNW 19 39 10 21 1013.0 - 1.4
25/03:00am 8.6 3.5 3.2 69 2.3 NW 19 39 10 21 1013.2 1013.3 1.4
25/02:30am 8.8 3.1 3.0 67 2.5 WNW 22 39 12 21 1013.3 - 1.4
25/02:00am 8.8 4.5 3.2 68 2.4 NNW 15 39 8 21 1013.5 - 1.4
25/01:30am 9.2 3.4 4.2 71 2.2 NW 24 52 13 28 1013.4 - 1.4
25/01:00am 8.9 5.3 5.1 77 1.7 NW 13 33 7 18 1013.8 - 1.4
25/12:30am 9.2 4.5 5.9 80 1.5 WNW 20 35 11 19 1014.0 - 1.4
25/12:15am 9.1 2.9 6.2 82 1.3 NW 28 48 15 26 1013.7 - 1.4

Other Formats:

Comma delimited format used in spreadsheet applications
http://www.bom.gov.au/fwo/IDV60801/IDV60801.94893.axf

JavaScript Object Notation format (JSON) in row-major order
http://www.bom.gov.au/fwo/IDV60801/IDV60801.94893.json